sensor_id;sensor_type;location;lat;lon;timestamp;P1;durP1;ratioP1;P2;durP2;ratioP2
33170;SDS011;19535;50.672;4.206;2024-01-10T00:01:56;2.47;;;2.22;;
33170;SDS011;19535;50.672;4.206;2024-01-10T00:04:23;2.30;;;2.10;;
33170;SDS011;19535;50.672;4.206;2024-01-10T00:06:50;2.63;;;2.03;;
33170;SDS011;19535;50.672;4.206;2024-01-10T00:09:17;2.60;;;2.35;;
33170;SDS011;19535;50.672;4.206;2024-01-10T00:11:44;2.08;;;1.98;;
33170;SDS011;19535;50.672;4.206;2024-01-10T00:14:11;2.35;;;2.15;;
33170;SDS011;19535;50.672;4.206;2024-01-10T00:16:38;2.50;;;2.30;;
33170;SDS011;19535;50.672;4.206;2024-01-10T00:19:05;2.03;;;1.83;;
33170;SDS011;19535;50.672;4.206;2024-01-10T00:21:32;2.10;;;2.00;;
33170;SDS011;19535;50.672;4.206;2024-01-10T00:24:01;2.65;;;2.28;;
33170;SDS011;19535;50.672;4.206;2024-01-10T00:26:27;2.42;;;2.20;;
33170;SDS011;19535;50.672;4.206;2024-01-10T00:28:54;2.33;;;2.00;;
33170;SDS011;19535;50.672;4.206;2024-01-10T00:31:30;2.22;;;2.00;;
33170;SDS011;19535;50.672;4.206;2024-01-10T00:33:57;2.38;;;2.10;;
33170;SDS011;19535;50.672;4.206;2024-01-10T00:36:25;2.55;;;2.35;;
33170;SDS011;19535;50.672;4.206;2024-01-10T00:38:52;2.55;;;2.35;;
33170;SDS011;19535;50.672;4.206;2024-01-10T00:41:19;2.53;;;2.30;;
33170;SDS011;19535;50.672;4.206;2024-01-10T00:43:46;2.10;;;2.00;;
33170;SDS011;19535;50.672;4.206;2024-01-10T00:46:13;2.00;;;1.80;;
33170;SDS011;19535;50.672;4.206;2024-01-10T00:48:40;2.55;;;2.35;;
33170;SDS011;19535;50.672;4.206;2024-01-10T00:51:06;2.22;;;2.03;;
33170;SDS011;19535;50.672;4.206;2024-01-10T00:53:35;1.95;;;1.85;;
33170;SDS011;19535;50.672;4.206;2024-01-10T00:56:05;2.88;;;1.85;;
33170;SDS011;19535;50.672;4.206;2024-01-10T00:58:32;2.17;;;1.98;;
33170;SDS011;19535;50.672;4.206;2024-01-10T01:00:59;2.15;;;1.98;;
33170;SDS011;19535;50.672;4.206;2024-01-10T01:03:26;2.13;;;1.92;;
33170;SDS011;19535;50.672;4.206;2024-01-10T01:05:53;2.47;;;2.22;;
33170;SDS011;19535;50.672;4.206;2024-01-10T01:08:20;2.10;;;1.90;;
33170;SDS011;19535;50.672;4.206;2024-01-10T01:10:46;2.08;;;1.95;;
33170;SDS011;19535;50.672;4.206;2024-01-10T01:13:13;2.20;;;2.05;;
33170;SDS011;19535;50.672;4.206;2024-01-10T01:15:40;1.80;;;1.70;;
33170;SDS011;19535;50.672;4.206;2024-01-10T01:18:07;2.20;;;2.00;;
33170;SDS011;19535;50.672;4.206;2024-01-10T01:20:36;2.00;;;1.90;;
33170;SDS011;19535;50.672;4.206;2024-01-10T01:23:03;2.47;;;2.03;;
33170;SDS011;19535;50.672;4.206;2024-01-10T01:25:30;2.17;;;1.98;;
33170;SDS011;19535;50.672;4.206;2024-01-10T01:27:57;2.30;;;2.10;;
33170;SDS011;19535;50.672;4.206;2024-01-10T01:30:23;2.65;;;2.25;;
33170;SDS011;19535;50.672;4.206;2024-01-10T01:32:50;2.28;;;2.08;;
33170;SDS011;19535;50.672;4.206;2024-01-10T01:35:17;2.10;;;1.90;;
33170;SDS011;19535;50.672;4.206;2024-01-10T01:37:48;2.53;;;2.33;;
33170;SDS011;19535;50.672;4.206;2024-01-10T01:40:15;2.30;;;2.10;;
33170;SDS011;19535;50.672;4.206;2024-01-10T01:42:43;2.05;;;1.92;;
33170;SDS011;19535;50.672;4.206;2024-01-10T01:45:14;2.35;;;2.08;;
33170;SDS011;19535;50.672;4.206;2024-01-10T01:47:41;2.30;;;2.10;;
33170;SDS011;19535;50.672;4.206;2024-01-10T01:50:08;2.30;;;2.10;;
33170;SDS011;19535;50.672;4.206;2024-01-10T01:52:35;2.05;;;1.88;;
33170;SDS011;19535;50.672;4.206;2024-01-10T01:55:02;2.30;;;2.10;;
33170;SDS011;19535;50.672;4.206;2024-01-10T01:57:30;2.90;;;2.60;;
33170;SDS011;19535;50.672;4.206;2024-01-10T01:59:57;2.40;;;2.20;;
33170;SDS011;19535;50.672;4.206;2024-01-10T03:17:28;2.35;;;2.15;;
33170;SDS011;19535;50.672;4.206;2024-01-10T03:19:55;2.35;;;1.95;;
33170;SDS011;19535;50.672;4.206;2024-01-10T03:22:22;3.50;;;2.42;;
33170;SDS011;19535;50.672;4.206;2024-01-10T03:24:49;2.60;;;2.40;;
33170;SDS011;19535;50.672;4.206;2024-01-10T03:27:15;2.42;;;2.22;;
33170;SDS011;19535;50.672;4.206;2024-01-10T03:29:42;2.33;;;2.13;;
33170;SDS011;19535;50.672;4.206;2024-01-10T03:32:09;2.50;;;2.30;;
33170;SDS011;19535;50.672;4.206;2024-01-10T03:34:37;2.20;;;2.00;;
33170;SDS011;19535;50.672;4.206;2024-01-10T03:37:04;2.40;;;2.20;;
33170;SDS011;19535;50.672;4.206;2024-01-10T03:39:32;2.60;;;2.40;;
33170;SDS011;19535;50.672;4.206;2024-01-10T03:41:58;2.28;;;2.08;;
33170;SDS011;19535;50.672;4.206;2024-01-10T03:44:28;2.35;;;2.15;;
33170;SDS011;19535;50.672;4.206;2024-01-10T03:46:55;2.58;;;2.38;;
33170;SDS011;19535;50.672;4.206;2024-01-10T03:49:22;2.58;;;2.38;;
33170;SDS011;19535;50.672;4.206;2024-01-10T03:51:49;3.00;;;2.25;;
33170;SDS011;19535;50.672;4.206;2024-01-10T03:54:16;2.33;;;2.13;;
33170;SDS011;19535;50.672;4.206;2024-01-10T03:56:43;2.70;;;2.50;;
33170;SDS011;19535;50.672;4.206;2024-01-10T03:59:10;2.80;;;2.60;;
33170;SDS011;19535;50.672;4.206;2024-01-10T04:01:37;2.70;;;2.22;;
33170;SDS011;19535;50.672;4.206;2024-01-10T04:04:05;2.50;;;2.30;;
33170;SDS011;19535;50.672;4.206;2024-01-10T04:06:32;2.58;;;2.38;;
33170;SDS011;19535;50.672;4.206;2024-01-10T04:08:59;2.55;;;2.35;;
33170;SDS011;19535;50.672;4.206;2024-01-10T04:11:27;2.60;;;2.40;;
33170;SDS011;19535;50.672;4.206;2024-01-10T04:13:54;2.40;;;2.22;;
33170;SDS011;19535;50.672;4.206;2024-01-10T04:16:20;2.30;;;2.10;;
33170;SDS011;19535;50.672;4.206;2024-01-10T04:18:47;2.50;;;2.30;;
33170;SDS011;19535;50.672;4.206;2024-01-10T04:21:14;2.58;;;2.38;;
33170;SDS011;19535;50.672;4.206;2024-01-10T04:23:41;3.10;;;2.70;;
33170;SDS011;19535;50.672;4.206;2024-01-10T04:26:08;2.50;;;2.30;;
33170;SDS011;19535;50.672;4.206;2024-01-10T04:28:35;2.90;;;2.63;;
33170;SDS011;19535;50.672;4.206;2024-01-10T04:33:32;2.20;;;2.10;;
33170;SDS011;19535;50.672;4.206;2024-01-10T04:35:59;2.58;;;2.38;;
33170;SDS011;19535;50.672;4.206;2024-01-10T04:38:26;2.28;;;2.08;;
33170;SDS011;19535;50.672;4.206;2024-01-10T04:40:53;2.80;;;2.60;;
33170;SDS011;19535;50.672;4.206;2024-01-10T04:43:20;2.85;;;2.53;;
33170;SDS011;19535;50.672;4.206;2024-01-10T04:45:47;2.40;;;2.20;;
33170;SDS011;19535;50.672;4.206;2024-01-10T04:48:14;2.60;;;2.40;;
33170;SDS011;19535;50.672;4.206;2024-01-10T04:50:41;2.28;;;2.10;;
33170;SDS011;19535;50.672;4.206;2024-01-10T04:53:08;2.47;;;2.28;;
33170;SDS011;19535;50.672;4.206;2024-01-10T04:55:35;2.58;;;2.38;;
33170;SDS011;19535;50.672;4.206;2024-01-10T04:58:02;2.60;;;2.40;;
33170;SDS011;19535;50.672;4.206;2024-01-10T05:00:29;2.10;;;2.00;;
33170;SDS011;19535;50.672;4.206;2024-01-10T05:02:56;2.40;;;2.20;;
33170;SDS011;19535;50.672;4.206;2024-01-10T05:05:24;2.53;;;2.33;;
33170;SDS011;19535;50.672;4.206;2024-01-10T05:07:51;2.42;;;2.22;;
33170;SDS011;19535;50.672;4.206;2024-01-10T05:10:18;2.25;;;2.08;;
33170;SDS011;19535;50.672;4.206;2024-01-10T05:12:45;2.30;;;2.10;;
33170;SDS011;19535;50.672;4.206;2024-01-10T05:15:12;2.53;;;2.25;;
33170;SDS011;19535;50.672;4.206;2024-01-10T05:17:39;4.43;;;2.08;;
33170;SDS011;19535;50.672;4.206;2024-01-10T05:20:06;2.45;;;2.25;;
33170;SDS011;19535;50.672;4.206;2024-01-10T05:22:34;2.95;;;2.58;;
33170;SDS011;19535;50.672;4.206;2024-01-10T05:25:01;2.40;;;2.20;;
33170;SDS011;19535;50.672;4.206;2024-01-10T05:27:28;2.33;;;2.13;;
33170;SDS011;19535;50.672;4.206;2024-01-10T05:29:55;2.60;;;2.40;;
33170;SDS011;19535;50.672;4.206;2024-01-10T05:32:22;2.38;;;2.17;;
33170;SDS011;19535;50.672;4.206;2024-01-10T05:34:49;2.35;;;2.15;;
33170;SDS011;19535;50.672;4.206;2024-01-10T05:37:16;2.10;;;2.00;;
33170;SDS011;19535;50.672;4.206;2024-01-10T05:39:43;2.58;;;2.38;;
33170;SDS011;19535;50.672;4.206;2024-01-10T05:42:10;2.60;;;2.40;;
33170;SDS011;19535;50.672;4.206;2024-01-10T05:44:37;2.53;;;2.35;;
33170;SDS011;19535;50.672;4.206;2024-01-10T05:47:05;2.75;;;2.55;;
33170;SDS011;19535;50.672;4.206;2024-01-10T05:49:32;2.63;;;2.42;;
33170;SDS011;19535;50.672;4.206;2024-01-10T05:51:59;2.80;;;2.60;;
33170;SDS011;19535;50.672;4.206;2024-01-10T05:54:26;2.40;;;2.20;;
33170;SDS011;19535;50.672;4.206;2024-01-10T05:56:53;2.30;;;2.10;;
33170;SDS011;19535;50.672;4.206;2024-01-10T05:59:20;2.70;;;2.50;;
33170;SDS011;19535;50.672;4.206;2024-01-10T06:01:47;3.15;;;2.60;;
33170;SDS011;19535;50.672;4.206;2024-01-10T06:04:15;2.50;;;2.30;;
33170;SDS011;19535;50.672;4.206;2024-01-10T06:06:42;2.40;;;2.20;;
33170;SDS011;19535;50.672;4.206;2024-01-10T06:09:09;2.38;;;2.17;;
33170;SDS011;19535;50.672;4.206;2024-01-10T06:11:41;2.45;;;2.25;;
33170;SDS011;19535;50.672;4.206;2024-01-10T06:14:08;2.55;;;2.35;;
33170;SDS011;19535;50.672;4.206;2024-01-10T06:16:35;2.60;;;2.40;;
33170;SDS011;19535;50.672;4.206;2024-01-10T06:19:02;2.70;;;2.50;;
33170;SDS011;19535;50.672;4.206;2024-01-10T06:21:29;2.50;;;2.30;;
33170;SDS011;19535;50.672;4.206;2024-01-10T06:23:56;2.63;;;2.30;;
33170;SDS011;19535;50.672;4.206;2024-01-10T06:26:23;2.80;;;2.60;;
33170;SDS011;19535;50.672;4.206;2024-01-10T06:28:50;2.40;;;2.17;;
33170;SDS011;19535;50.672;4.206;2024-01-10T06:31:17;2.80;;;2.60;;
33170;SDS011;19535;50.672;4.206;2024-01-10T06:33:43;2.70;;;2.50;;
33170;SDS011;19535;50.672;4.206;2024-01-10T06:36:10;2.55;;;2.35;;
33170;SDS011;19535;50.672;4.206;2024-01-10T06:38:40;2.65;;;2.45;;
33170;SDS011;19535;50.672;4.206;2024-01-10T06:41:11;2.72;;;2.53;;
33170;SDS011;19535;50.672;4.206;2024-01-10T06:43:40;3.92;;;2.58;;
33170;SDS011;19535;50.672;4.206;2024-01-10T06:46:07;2.55;;;2.35;;
33170;SDS011;19535;50.672;4.206;2024-01-10T06:48:36;3.60;;;2.13;;
33170;SDS011;19535;50.672;4.206;2024-01-10T06:51:14;2.58;;;2.38;;
33170;SDS011;19535;50.672;4.206;2024-01-10T06:53:42;4.20;;;2.67;;
33170;SDS011;19535;50.672;4.206;2024-01-10T06:56:09;2.85;;;2.47;;
33170;SDS011;19535;50.672;4.206;2024-01-10T06:58:36;2.80;;;2.60;;
33170;SDS011;19535;50.672;4.206;2024-01-10T07:01:04;2.60;;;2.40;;
33170;SDS011;19535;50.672;4.206;2024-01-10T07:03:32;3.22;;;2.55;;
33170;SDS011;19535;50.672;4.206;2024-01-10T07:06:01;2.60;;;2.40;;
33170;SDS011;19535;50.672;4.206;2024-01-10T07:08:28;2.83;;;2.63;;
33170;SDS011;19535;50.672;4.206;2024-01-10T07:10:57;2.80;;;2.60;;
33170;SDS011;19535;50.672;4.206;2024-01-10T07:13:24;3.97;;;3.08;;
33170;SDS011;19535;50.672;4.206;2024-01-10T07:15:51;3.20;;;2.90;;
33170;SDS011;19535;50.672;4.206;2024-01-10T07:18:18;3.05;;;2.85;;
33170;SDS011;19535;50.672;4.206;2024-01-10T07:20:46;4.10;;;2.92;;
33170;SDS011;19535;50.672;4.206;2024-01-10T07:23:13;2.85;;;2.63;;
33170;SDS011;19535;50.672;4.206;2024-01-10T07:25:40;2.75;;;2.55;;
33170;SDS011;19535;50.672;4.206;2024-01-10T07:28:07;3.00;;;2.70;;
33170;SDS011;19535;50.672;4.206;2024-01-10T07:30:33;2.72;;;2.53;;
33170;SDS011;19535;50.672;4.206;2024-01-10T07:33:00;3.25;;;3.00;;
33170;SDS011;19535;50.672;4.206;2024-01-10T07:35:28;3.25;;;2.95;;
33170;SDS011;19535;50.672;4.206;2024-01-10T07:37:56;3.22;;;2.92;;
33170;SDS011;19535;50.672;4.206;2024-01-10T07:40:23;3.33;;;3.03;;
33170;SDS011;19535;50.672;4.206;2024-01-10T07:42:50;3.05;;;2.75;;
33170;SDS011;19535;50.672;4.206;2024-01-10T07:45:17;2.78;;;2.45;;
33170;SDS011;19535;50.672;4.206;2024-01-10T07:47:44;2.95;;;2.75;;
33170;SDS011;19535;50.672;4.206;2024-01-10T07:50:12;3.33;;;3.10;;
33170;SDS011;19535;50.672;4.206;2024-01-10T07:52:41;3.25;;;3.05;;
33170;SDS011;19535;50.672;4.206;2024-01-10T07:55:09;3.30;;;3.00;;
33170;SDS011;19535;50.672;4.206;2024-01-10T07:57:36;2.85;;;2.65;;
33170;SDS011;19535;50.672;4.206;2024-01-10T08:00:06;3.25;;;2.88;;
33170;SDS011;19535;50.672;4.206;2024-01-10T08:02:37;3.03;;;2.80;;
33170;SDS011;19535;50.672;4.206;2024-01-10T08:05:05;3.13;;;2.90;;
33170;SDS011;19535;50.672;4.206;2024-01-10T08:07:37;3.05;;;2.75;;
33170;SDS011;19535;50.672;4.206;2024-01-10T08:10:05;3.08;;;2.88;;
33170;SDS011;19535;50.672;4.206;2024-01-10T08:12:33;3.65;;;3.00;;
33170;SDS011;19535;50.672;4.206;2024-01-10T08:15:00;3.65;;;2.90;;
33170;SDS011;19535;50.672;4.206;2024-01-10T08:17:28;3.05;;;2.75;;
33170;SDS011;19535;50.672;4.206;2024-01-10T08:19:55;3.35;;;3.05;;
33170;SDS011;19535;50.672;4.206;2024-01-10T08:22:22;3.28;;;3.00;;
33170;SDS011;19535;50.672;4.206;2024-01-10T08:24:53;3.40;;;3.10;;
33170;SDS011;19535;50.672;4.206;2024-01-10T08:27:19;3.10;;;2.90;;
33170;SDS011;19535;50.672;4.206;2024-01-10T08:29:46;3.70;;;3.40;;
33170;SDS011;19535;50.672;4.206;2024-01-10T08:32:14;3.28;;;3.00;;
33170;SDS011;19535;50.672;4.206;2024-01-10T08:34:41;3.03;;;2.83;;
33170;SDS011;19535;50.672;4.206;2024-01-10T08:37:11;2.88;;;2.67;;
33170;SDS011;19535;50.672;4.206;2024-01-10T08:39:38;4.28;;;3.20;;
33170;SDS011;19535;50.672;4.206;2024-01-10T08:42:05;3.05;;;2.85;;
33170;SDS011;19535;50.672;4.206;2024-01-10T08:44:32;3.50;;;2.90;;
33170;SDS011;19535;50.672;4.206;2024-01-10T08:46:59;3.33;;;3.03;;
33170;SDS011;19535;50.672;4.206;2024-01-10T08:49:26;3.50;;;2.95;;
33170;SDS011;19535;50.672;4.206;2024-01-10T08:51:53;5.20;;;2.83;;
33170;SDS011;19535;50.672;4.206;2024-01-10T08:54:20;2.88;;;2.63;;
33170;SDS011;19535;50.672;4.206;2024-01-10T08:56:49;3.20;;;2.70;;
33170;SDS011;19535;50.672;4.206;2024-01-10T08:59:16;3.00;;;2.80;;
33170;SDS011;19535;50.672;4.206;2024-01-10T09:01:43;4.18;;;3.00;;
33170;SDS011;19535;50.672;4.206;2024-01-10T09:04:10;3.00;;;2.70;;
33170;SDS011;19535;50.672;4.206;2024-01-10T09:06:38;3.53;;;2.92;;
33170;SDS011;19535;50.672;4.206;2024-01-10T09:09:05;3.28;;;2.80;;
33170;SDS011;19535;50.672;4.206;2024-01-10T09:11:33;3.40;;;3.10;;
33170;SDS011;19535;50.672;4.206;2024-01-10T09:14:05;3.42;;;2.80;;
33170;SDS011;19535;50.672;4.206;2024-01-10T09:16:32;4.40;;;3.00;;
33170;SDS011;19535;50.672;4.206;2024-01-10T09:18:59;3.35;;;2.97;;
33170;SDS011;19535;50.672;4.206;2024-01-10T09:21:26;4.80;;;2.90;;
33170;SDS011;19535;50.672;4.206;2024-01-10T09:23:53;3.40;;;2.72;;
33170;SDS011;19535;50.672;4.206;2024-01-10T09:26:22;3.67;;;2.95;;
33170;SDS011;19535;50.672;4.206;2024-01-10T09:28:49;3.67;;;3.08;;
33170;SDS011;19535;50.672;4.206;2024-01-10T09:31:16;3.38;;;3.00;;
33170;SDS011;19535;50.672;4.206;2024-01-10T09:33:43;3.28;;;3.00;;
33170;SDS011;19535;50.672;4.206;2024-01-10T09:36:11;3.50;;;3.20;;
33170;SDS011;19535;50.672;4.206;2024-01-10T09:38:38;3.53;;;2.95;;
33170;SDS011;19535;50.672;4.206;2024-01-10T09:41:05;3.20;;;2.90;;
33170;SDS011;19535;50.672;4.206;2024-01-10T09:43:32;3.55;;;2.90;;
33170;SDS011;19535;50.672;4.206;2024-01-10T09:46:02;3.08;;;2.80;;
33170;SDS011;19535;50.672;4.206;2024-01-10T09:48:31;3.25;;;2.95;;
33170;SDS011;19535;50.672;4.206;2024-01-10T09:50:59;3.08;;;2.80;;
33170;SDS011;19535;50.672;4.206;2024-01-10T09:53:26;4.22;;;3.10;;
33170;SDS011;19535;50.672;4.206;2024-01-10T09:55:53;3.92;;;3.38;;
33170;SDS011;19535;50.672;4.206;2024-01-10T09:58:23;3.30;;;3.00;;
33170;SDS011;19535;50.672;4.206;2024-01-10T10:00:53;3.22;;;3.00;;
33170;SDS011;19535;50.672;4.206;2024-01-10T10:03:20;3.45;;;3.15;;
33170;SDS011;19535;50.672;4.206;2024-01-10T10:05:48;5.30;;;3.15;;
33170;SDS011;19535;50.672;4.206;2024-01-10T10:08:15;3.38;;;3.08;;
33170;SDS011;19535;50.672;4.206;2024-01-10T10:10:48;3.15;;;2.85;;
33170;SDS011;19535;50.672;4.206;2024-01-10T10:13:25;4.05;;;2.70;;
33170;SDS011;19535;50.672;4.206;2024-01-10T10:18:27;3.22;;;2.92;;
33170;SDS011;19535;50.672;4.206;2024-01-10T10:21:14;2.85;;;2.65;;
33170;SDS011;19535;50.672;4.206;2024-01-10T10:23:42;3.40;;;3.10;;
33170;SDS011;19535;50.672;4.206;2024-01-10T10:26:10;4.53;;;3.00;;
33170;SDS011;19535;50.672;4.206;2024-01-10T10:28:50;3.63;;;3.30;;
33170;SDS011;19535;50.672;4.206;2024-01-10T10:31:18;2.97;;;2.78;;
33170;SDS011;19535;50.672;4.206;2024-01-10T10:33:48;2.83;;;2.63;;
33170;SDS011;19535;50.672;4.206;2024-01-10T10:36:17;3.22;;;2.92;;
33170;SDS011;19535;50.672;4.206;2024-01-10T10:38:48;3.53;;;3.13;;
33170;SDS011;19535;50.672;4.206;2024-01-10T10:41:15;4.18;;;3.10;;
33170;SDS011;19535;50.672;4.206;2024-01-10T10:43:42;2.92;;;2.72;;
33170;SDS011;19535;50.672;4.206;2024-01-10T10:46:10;3.25;;;2.95;;
33170;SDS011;19535;50.672;4.206;2024-01-10T10:48:41;3.00;;;2.80;;
33170;SDS011;19535;50.672;4.206;2024-01-10T10:51:17;4.00;;;3.13;;
33170;SDS011;19535;50.672;4.206;2024-01-10T10:53:49;3.15;;;2.85;;
33170;SDS011;19535;50.672;4.206;2024-01-10T10:56:16;3.80;;;3.50;;
33170;SDS011;19535;50.672;4.206;2024-01-10T10:58:44;3.47;;;3.17;;
33170;SDS011;19535;50.672;4.206;2024-01-10T11:01:13;3.03;;;2.83;;
33170;SDS011;19535;50.672;4.206;2024-01-10T11:03:40;3.40;;;3.10;;
33170;SDS011;19535;50.672;4.206;2024-01-10T11:06:13;3.58;;;3.25;;
33170;SDS011;19535;50.672;4.206;2024-01-10T11:08:48;3.40;;;3.10;;
33170;SDS011;19535;50.672;4.206;2024-01-10T11:11:34;3.42;;;3.08;;
33170;SDS011;19535;50.672;4.206;2024-01-10T11:25:32;3.63;;;3.25;;
33170;SDS011;19535;50.672;4.206;2024-01-10T11:28:03;3.80;;;3.50;;
33170;SDS011;19535;50.672;4.206;2024-01-10T11:30:37;3.33;;;2.97;;
33170;SDS011;19535;50.672;4.206;2024-01-10T11:33:24;3.67;;;3.22;;
33170;SDS011;19535;50.672;4.206;2024-01-10T11:36:13;3.50;;;3.20;;
33170;SDS011;19535;50.672;4.206;2024-01-10T11:39:03;3.35;;;2.92;;
33170;SDS011;19535;50.672;4.206;2024-01-10T11:41:33;3.33;;;3.03;;
33170;SDS011;19535;50.672;4.206;2024-01-10T11:46:48;3.40;;;3.10;;
33170;SDS011;19535;50.672;4.206;2024-01-10T11:49:18;3.65;;;3.25;;
33170;SDS011;19535;50.672;4.206;2024-01-10T11:51:46;3.83;;;3.15;;
33170;SDS011;19535;50.672;4.206;2024-01-10T11:54:35;3.90;;;3.50;;
33170;SDS011;19535;50.672;4.206;2024-01-10T11:57:03;3.45;;;3.05;;
33170;SDS011;19535;50.672;4.206;2024-01-10T11:59:41;3.85;;;2.92;;
33170;SDS011;19535;50.672;4.206;2024-01-10T12:02:11;4.75;;;3.42;;
33170;SDS011;19535;50.672;4.206;2024-01-10T12:04:39;3.25;;;2.90;;
33170;SDS011;19535;50.672;4.206;2024-01-10T12:07:14;3.40;;;3.03;;
33170;SDS011;19535;50.672;4.206;2024-01-10T12:09:42;3.58;;;2.72;;
33170;SDS011;19535;50.672;4.206;2024-01-10T12:12:09;3.70;;;3.30;;
33170;SDS011;19535;50.672;4.206;2024-01-10T12:14:38;2.97;;;2.78;;
33170;SDS011;19535;50.672;4.206;2024-01-10T12:17:06;3.58;;;3.28;;
33170;SDS011;19535;50.672;4.206;2024-01-10T12:19:36;5.95;;;3.35;;
33170;SDS011;19535;50.672;4.206;2024-01-10T12:22:04;3.65;;;3.35;;
33170;SDS011;19535;50.672;4.206;2024-01-10T12:24:42;4.32;;;3.22;;
33170;SDS011;19535;50.672;4.206;2024-01-10T12:27:13;3.22;;;2.97;;
33170;SDS011;19535;50.672;4.206;2024-01-10T12:29:43;3.92;;;3.20;;
33170;SDS011;19535;50.672;4.206;2024-01-10T12:32:10;3.53;;;3.22;;
33170;SDS011;19535;50.672;4.206;2024-01-10T12:34:37;4.40;;;2.72;;
33170;SDS011;19535;50.672;4.206;2024-01-10T12:37:05;3.70;;;3.03;;
33170;SDS011;19535;50.672;4.206;2024-01-10T12:39:33;3.95;;;3.47;;
33170;SDS011;19535;50.672;4.206;2024-01-10T12:42:00;3.45;;;3.15;;
33170;SDS011;19535;50.672;4.206;2024-01-10T12:44:28;3.42;;;3.08;;
33170;SDS011;19535;50.672;4.206;2024-01-10T12:46:58;2.90;;;2.70;;
33170;SDS011;19535;50.672;4.206;2024-01-10T12:49:26;3.53;;;2.92;;
33170;SDS011;19535;50.672;4.206;2024-01-10T12:51:53;3.35;;;3.05;;
33170;SDS011;19535;50.672;4.206;2024-01-10T12:54:21;3.33;;;3.00;;
33170;SDS011;19535;50.672;4.206;2024-01-10T12:56:48;3.13;;;2.83;;
33170;SDS011;19535;50.672;4.206;2024-01-10T12:59:16;3.42;;;3.13;;
33170;SDS011;19535;50.672;4.206;2024-01-10T13:01:44;3.63;;;3.28;;
33170;SDS011;19535;50.672;4.206;2024-01-10T13:04:11;3.88;;;3.10;;
33170;SDS011;19535;50.672;4.206;2024-01-10T13:06:38;4.85;;;3.60;;
33170;SDS011;19535;50.672;4.206;2024-01-10T13:09:07;3.40;;;3.10;;
33170;SDS011;19535;50.672;4.206;2024-01-10T13:11:34;3.58;;;3.00;;
33170;SDS011;19535;50.672;4.206;2024-01-10T13:14:01;3.58;;;3.28;;
33170;SDS011;19535;50.672;4.206;2024-01-10T13:16:28;2.97;;;2.75;;
33170;SDS011;19535;50.672;4.206;2024-01-10T13:18:56;3.22;;;2.92;;
33170;SDS011;19535;50.672;4.206;2024-01-10T13:21:25;3.08;;;2.78;;
33170;SDS011;19535;50.672;4.206;2024-01-10T13:23:52;3.22;;;2.92;;
33170;SDS011;19535;50.672;4.206;2024-01-10T13:26:19;3.85;;;3.17;;
33170;SDS011;19535;50.672;4.206;2024-01-10T13:28:46;3.10;;;2.90;;
33170;SDS011;19535;50.672;4.206;2024-01-10T13:31:13;3.35;;;3.08;;
33170;SDS011;19535;50.672;4.206;2024-01-10T13:33:41;3.00;;;2.80;;
33170;SDS011;19535;50.672;4.206;2024-01-10T13:36:13;3.25;;;3.03;;
33170;SDS011;19535;50.672;4.206;2024-01-10T13:38:40;3.50;;;3.10;;
33170;SDS011;19535;50.672;4.206;2024-01-10T13:41:07;3.72;;;3.25;;
33170;SDS011;19535;50.672;4.206;2024-01-10T13:43:35;3.17;;;2.88;;
33170;SDS011;19535;50.672;4.206;2024-01-10T13:46:02;3.40;;;3.10;;
33170;SDS011;19535;50.672;4.206;2024-01-10T13:48:34;3.33;;;2.72;;
33170;SDS011;19535;50.672;4.206;2024-01-10T13:51:02;3.97;;;3.55;;
33170;SDS011;19535;50.672;4.206;2024-01-10T13:53:29;2.88;;;2.67;;
33170;SDS011;19535;50.672;4.206;2024-01-10T13:55:56;3.10;;;2.72;;
33170;SDS011;19535;50.672;4.206;2024-01-10T13:58:23;3.30;;;3.00;;
33170;SDS011;19535;50.672;4.206;2024-01-10T14:00:51;3.30;;;2.95;;
33170;SDS011;19535;50.672;4.206;2024-01-10T14:03:18;3.78;;;3.25;;
33170;SDS011;19535;50.672;4.206;2024-01-10T14:05:45;3.47;;;2.92;;
33170;SDS011;19535;50.672;4.206;2024-01-10T14:08:13;5.15;;;3.58;;
33170;SDS011;19535;50.672;4.206;2024-01-10T14:10:40;3.88;;;3.53;;
33170;SDS011;19535;50.672;4.206;2024-01-10T14:13:08;3.33;;;3.03;;
33170;SDS011;19535;50.672;4.206;2024-01-10T14:15:35;3.00;;;2.80;;
33170;SDS011;19535;50.672;4.206;2024-01-10T14:18:02;3.10;;;2.83;;
33170;SDS011;19535;50.672;4.206;2024-01-10T14:20:31;3.22;;;2.92;;
33170;SDS011;19535;50.672;4.206;2024-01-10T14:22:59;3.42;;;3.13;;
33170;SDS011;19535;50.672;4.206;2024-01-10T14:25:27;3.40;;;3.10;;
33170;SDS011;19535;50.672;4.206;2024-01-10T14:27:54;3.42;;;3.13;;
33170;SDS011;19535;50.672;4.206;2024-01-10T14:30:22;3.40;;;3.10;;
33170;SDS011;19535;50.672;4.206;2024-01-10T14:32:51;3.28;;;2.97;;
33170;SDS011;19535;50.672;4.206;2024-01-10T14:35:18;3.60;;;3.30;;
33170;SDS011;19535;50.672;4.206;2024-01-10T14:37:46;3.20;;;2.90;;
33170;SDS011;19535;50.672;4.206;2024-01-10T14:40:13;3.67;;;3.38;;
33170;SDS011;19535;50.672;4.206;2024-01-10T14:42:40;3.78;;;3.40;;
33170;SDS011;19535;50.672;4.206;2024-01-10T14:45:07;3.20;;;2.90;;
33170;SDS011;19535;50.672;4.206;2024-01-10T14:47:35;3.90;;;3.47;;
33170;SDS011;19535;50.672;4.206;2024-01-10T14:50:02;3.45;;;3.15;;
33170;SDS011;19535;50.672;4.206;2024-01-10T14:52:29;3.60;;;3.30;;
33170;SDS011;19535;50.672;4.206;2024-01-10T14:54:57;4.07;;;3.67;;
33170;SDS011;19535;50.672;4.206;2024-01-10T14:57:23;4.60;;;3.97;;
33170;SDS011;19535;50.672;4.206;2024-01-10T14:59:50;6.10;;;5.20;;
33170;SDS011;19535;50.672;4.206;2024-01-10T15:02:18;8.10;;;6.07;;
33170;SDS011;19535;50.672;4.206;2024-01-10T15:04:46;8.68;;;6.07;;
33170;SDS011;19535;50.672;4.206;2024-01-10T15:07:13;7.05;;;6.25;;
33170;SDS011;19535;50.672;4.206;2024-01-10T15:09:42;9.73;;;6.20;;
33170;SDS011;19535;50.672;4.206;2024-01-10T15:12:09;8.75;;;4.93;;
33170;SDS011;19535;50.672;4.206;2024-01-10T15:14:37;6.07;;;4.75;;
33170;SDS011;19535;50.672;4.206;2024-01-10T15:17:06;7.40;;;4.97;;
33170;SDS011;19535;50.672;4.206;2024-01-10T15:19:37;4.72;;;4.22;;
33170;SDS011;19535;50.672;4.206;2024-01-10T15:22:05;4.40;;;4.00;;
33170;SDS011;19535;50.672;4.206;2024-01-10T15:24:32;5.05;;;4.55;;
33170;SDS011;19535;50.672;4.206;2024-01-10T15:26:59;6.50;;;4.40;;
33170;SDS011;19535;50.672;4.206;2024-01-10T15:29:28;4.57;;;4.07;;
33170;SDS011;19535;50.672;4.206;2024-01-10T15:31:56;5.10;;;4.00;;
33170;SDS011;19535;50.672;4.206;2024-01-10T15:34:24;4.72;;;4.07;;
33170;SDS011;19535;50.672;4.206;2024-01-10T15:36:52;4.43;;;3.97;;
33170;SDS011;19535;50.672;4.206;2024-01-10T15:39:19;4.45;;;4.05;;
33170;SDS011;19535;50.672;4.206;2024-01-10T15:41:51;4.55;;;3.75;;
33170;SDS011;19535;50.672;4.206;2024-01-10T15:44:18;4.20;;;3.80;;
33170;SDS011;19535;50.672;4.206;2024-01-10T15:46:47;4.93;;;3.92;;
33170;SDS011;19535;50.672;4.206;2024-01-10T15:49:14;5.68;;;4.32;;
33170;SDS011;19535;50.672;4.206;2024-01-10T15:51:42;4.38;;;3.75;;
33170;SDS011;19535;50.672;4.206;2024-01-10T15:54:09;5.47;;;4.32;;
33170;SDS011;19535;50.672;4.206;2024-01-10T15:56:36;4.40;;;4.00;;
33170;SDS011;19535;50.672;4.206;2024-01-10T15:59:07;4.78;;;4.03;;
33170;SDS011;19535;50.672;4.206;2024-01-10T16:01:34;4.07;;;3.67;;
33170;SDS011;19535;50.672;4.206;2024-01-10T16:04:01;3.83;;;3.50;;
33170;SDS011;19535;50.672;4.206;2024-01-10T16:06:30;6.00;;;3.65;;
33170;SDS011;19535;50.672;4.206;2024-01-10T16:08:59;4.53;;;3.60;;
33170;SDS011;19535;50.672;4.206;2024-01-10T16:11:27;4.15;;;3.75;;
33170;SDS011;19535;50.672;4.206;2024-01-10T16:13:54;3.95;;;3.60;;
33170;SDS011;19535;50.672;4.206;2024-01-10T16:16:21;4.32;;;3.80;;
33170;SDS011;19535;50.672;4.206;2024-01-10T16:18:49;4.57;;;3.90;;
33170;SDS011;19535;50.672;4.206;2024-01-10T16:21:16;3.90;;;3.40;;
33170;SDS011;19535;50.672;4.206;2024-01-10T16:23:45;4.20;;;3.80;;
33170;SDS011;19535;50.672;4.206;2024-01-10T16:26:12;5.05;;;3.72;;
33170;SDS011;19535;50.672;4.206;2024-01-10T16:28:39;5.72;;;4.80;;